createdAt,value
2023-05-03T00:01:50.606Z,102967.24
2023-05-03T00:04:20.262Z,102964.72
2023-05-03T00:06:50.047Z,102977.55
2023-05-03T00:09:19.701Z,102976.94
2023-05-03T00:11:48.956Z,102967.84
2023-05-03T00:14:18.212Z,102972.37
2023-05-03T00:16:47.488Z,102968.33
2023-05-03T00:19:30.518Z,102972.24
2023-05-03T00:21:48.288Z,102973.00
2023-05-03T00:24:17.812Z,102957.42
2023-05-03T00:26:47.063Z,102958.43
2023-05-03T00:29:16.498Z,102961.92
2023-05-03T00:31:46.011Z,102958.39
2023-05-03T00:34:15.539Z,102963.66
2023-05-03T00:36:44.766Z,102961.69
2023-05-03T00:39:14.479Z,102965.09
2023-05-03T00:41:43.707Z,102965.92
2023-05-03T00:44:12.983Z,102955.41
2023-05-03T00:46:42.344Z,102949.92
2023-05-03T00:49:11.844Z,102950.23
2023-05-03T00:51:42.022Z,102951.14
2023-05-03T00:54:12.300Z,102952.58
2023-05-03T00:56:51.081Z,102955.19
2023-05-03T00:59:13.657Z,102960.80
2023-05-03T01:01:43.113Z,102961.19
2023-05-03T01:04:12.848Z,102961.94
2023-05-03T01:06:46.099Z,102957.84
2023-05-03T01:09:27.864Z,102960.99
2023-05-03T01:12:27.964Z,102958.27
2023-05-03T01:15:00.864Z,102962.70
2023-05-03T01:17:33.172Z,102950.47
2023-05-03T01:20:05.869Z,102959.22
2023-05-03T01:22:44.427Z,102956.21
2023-05-03T01:25:15.247Z,102954.83
2023-05-03T01:27:44.575Z,102957.12
2023-05-03T01:30:15.795Z,102956.29
2023-05-03T01:32:48.268Z,102958.86
2023-05-03T01:35:20.314Z,102957.67
2023-05-03T01:37:49.803Z,102955.73
2023-05-03T01:40:19.913Z,102952.37
2023-05-03T01:42:49.865Z,102955.54
2023-05-03T01:45:19.533Z,102953.76
2023-05-03T01:47:49.283Z,102953.41
2023-05-03T01:50:18.674Z,102955.50
2023-05-03T01:52:51.281Z,102958.55
2023-05-03T01:55:20.648Z,102963.30
2023-05-03T01:57:49.935Z,102953.09
2023-05-03T02:00:20.956Z,102953.09
2023-05-03T02:02:50.559Z,102948.62
2023-05-03T02:05:19.920Z,102950.20
2023-05-03T02:07:49.194Z,102940.07
2023-05-03T02:10:18.854Z,102931.91
2023-05-03T02:12:48.706Z,102928.83
2023-05-03T02:15:20.218Z,102920.78
2023-05-03T02:17:51.215Z,102910.83
2023-05-03T02:20:20.907Z,102906.43
2023-05-03T02:22:50.245Z,102896.72
2023-05-03T02:25:20.830Z,102894.84
2023-05-03T02:27:50.132Z,102889.61
2023-05-03T02:30:19.432Z,102887.44
2023-05-03T02:32:48.759Z,102886.58
2023-05-03T02:35:18.959Z,102888.80
2023-05-03T02:37:48.622Z,102894.23
2023-05-03T02:40:18.382Z,102909.56
2023-05-03T02:42:48.194Z,102911.21
2023-05-03T02:45:18.863Z,102910.04
2023-05-03T02:47:48.147Z,102914.65
2023-05-03T02:50:17.896Z,102921.41
2023-05-03T02:52:47.613Z,102921.48
2023-05-03T02:55:17.438Z,102916.65
2023-05-03T02:57:47.099Z,102919.75
2023-05-03T03:00:17.726Z,102930.98
2023-05-03T03:02:47.866Z,102938.37
2023-05-03T03:05:17.769Z,102935.13
2023-05-03T03:07:48.758Z,102933.44
2023-05-03T03:10:18.593Z,102930.44
2023-05-03T03:12:50.383Z,102923.44
2023-05-03T03:15:22.154Z,102916.31
2023-05-03T03:17:52.070Z,102922.17
2023-05-03T03:20:21.327Z,102926.59
2023-05-03T03:22:51.436Z,102918.34
2023-05-03T03:25:21.539Z,102915.81
2023-05-03T03:27:51.321Z,102923.16
2023-05-03T03:30:20.649Z,102927.51
2023-05-03T03:32:52.008Z,102933.83
2023-05-03T03:35:23.330Z,102939.23
2023-05-03T03:37:53.161Z,102930.30
2023-05-03T03:40:24.382Z,102933.23
2023-05-03T03:42:54.556Z,102938.41
2023-05-03T03:45:24.492Z,102940.91
2023-05-03T03:47:54.033Z,102941.38
2023-05-03T03:50:25.500Z,102940.58
2023-05-03T03:52:55.561Z,102934.61
2023-05-03T03:55:24.909Z,102933.38
2023-05-03T03:57:55.110Z,102932.77
2023-05-03T04:00:25.225Z,102941.50
2023-05-03T04:02:56.742Z,102941.50
2023-05-03T04:05:26.920Z,102950.12
2023-05-03T04:07:56.342Z,102949.39
2023-05-03T04:10:27.260Z,102950.81
2023-05-03T04:12:56.813Z,102950.81
2023-05-03T04:15:26.081Z,102949.98
2023-05-03T04:17:57.076Z,102959.47
2023-05-03T04:20:28.137Z,102961.31
2023-05-03T04:22:57.672Z,102962.58
2023-05-03T04:25:30.324Z,102966.30
2023-05-03T04:28:01.266Z,102968.11
2023-05-03T04:30:32.231Z,102972.09
2023-05-03T04:33:03.881Z,102974.55
2023-05-03T04:35:36.154Z,102977.89
2023-05-03T04:38:07.370Z,102978.93
2023-05-03T04:40:37.563Z,102988.39
2023-05-03T04:43:11.535Z,102992.56
2023-05-03T04:45:42.808Z,102998.03
2023-05-03T04:48:13.907Z,102997.50
2023-05-03T04:50:43.204Z,102988.55
2023-05-03T04:53:13.442Z,102988.22
2023-05-03T04:55:43.960Z,102986.84
2023-05-03T04:58:13.294Z,102983.50
2023-05-03T05:00:43.862Z,102981.95
2023-05-03T05:03:14.900Z,102977.68
2023-05-03T05:05:44.552Z,102977.39
2023-05-03T05:08:14.203Z,102973.84
2023-05-03T05:10:45.377Z,102965.02
2023-05-03T05:13:16.733Z,102971.20
2023-05-03T05:15:46.171Z,102973.54
2023-05-03T05:18:15.759Z,102976.52
2023-05-03T05:20:46.666Z,102982.75
2023-05-03T05:23:16.510Z,102979.50
2023-05-03T05:25:46.924Z,102990.68
2023-05-03T05:28:16.548Z,102988.65
2023-05-03T05:30:46.483Z,103000.17
2023-05-03T05:33:17.507Z,102999.31
2023-05-03T05:35:48.633Z,102998.39
2023-05-03T05:38:20.080Z,102995.70
2023-05-03T05:40:51.225Z,102991.75
2023-05-03T05:43:21.275Z,102993.26
2023-05-03T05:45:50.774Z,102993.11
2023-05-03T05:48:21.071Z,102990.95
2023-05-03T05:50:50.852Z,102994.06
2023-05-03T05:53:20.260Z,102999.52
2023-05-03T05:55:51.284Z,102995.76
2023-05-03T05:58:21.080Z,102998.22
2023-05-03T06:00:52.877Z,102994.34
2023-05-03T06:03:22.416Z,102999.44
2023-05-03T06:05:53.019Z,103002.03
2023-05-03T06:08:22.621Z,103004.34
2023-05-03T06:10:53.352Z,102994.95
2023-05-03T06:13:23.546Z,102998.60
2023-05-03T06:15:54.197Z,102994.78
2023-05-03T06:18:24.419Z,102994.98
2023-05-03T06:20:53.905Z,102992.75
2023-05-03T06:23:23.448Z,102992.83
2023-05-03T06:25:53.872Z,102997.45
2023-05-03T06:28:24.192Z,102996.02
2023-05-03T06:30:55.912Z,102992.20
2023-05-03T06:33:25.610Z,102994.48
2023-05-03T06:35:54.932Z,102990.11
2023-05-03T06:38:24.598Z,102986.97
2023-05-03T06:40:54.206Z,102984.69
2023-05-03T06:43:24.012Z,102987.48
2023-05-03T06:45:54.981Z,102994.05
2023-05-03T06:48:25.437Z,102991.56
2023-05-03T06:50:55.563Z,102989.27
2023-05-03T06:53:25.153Z,102993.34
2023-05-03T06:55:55.013Z,102991.94
2023-05-03T06:58:24.456Z,102988.22
2023-05-03T07:00:54.559Z,102989.85
2023-05-03T07:03:25.137Z,102991.23
2023-05-03T07:05:54.532Z,102986.70
2023-05-03T07:08:24.065Z,102979.00
2023-05-03T07:10:53.702Z,102972.37
2023-05-03T07:13:22.954Z,102974.99
2023-05-03T07:15:52.295Z,102973.48
2023-05-03T07:18:21.656Z,102972.02
2023-05-03T07:20:51.502Z,102966.89
2023-05-03T07:23:21.313Z,102969.59
2023-05-03T07:25:50.671Z,102962.81
2023-05-03T07:28:20.211Z,102953.60
2023-05-03T07:30:49.749Z,102953.45
2023-05-03T07:33:19.545Z,102954.70
2023-05-03T07:35:51.102Z,102955.34
2023-05-03T07:38:20.825Z,102951.34
2023-05-03T07:40:50.117Z,102947.92
2023-05-03T07:43:21.237Z,102940.92
2023-05-03T07:45:51.098Z,102929.48
2023-05-03T07:48:20.444Z,102930.68
2023-05-03T07:50:50.196Z,102929.43
2023-05-03T07:53:19.816Z,102928.73
2023-05-03T07:55:49.094Z,102928.51
2023-05-03T07:58:23.213Z,102936.55
2023-05-03T08:00:49.547Z,102932.28
2023-05-03T08:03:19.103Z,102916.33
2023-05-03T08:05:49.002Z,102914.77
2023-05-03T08:08:19.625Z,102913.08
2023-05-03T08:10:49.202Z,102909.21
2023-05-03T08:13:18.438Z,102901.81
2023-05-03T08:15:48.084Z,102902.64
2023-05-03T08:18:17.390Z,102908.64
2023-05-03T08:20:47.165Z,102917.05
2023-05-03T08:23:16.662Z,102923.64
2023-05-03T08:25:46.134Z,102927.11
2023-05-03T08:28:15.385Z,102930.44
2023-05-03T08:30:45.174Z,102922.77
2023-05-03T08:33:14.454Z,102927.31
2023-05-03T08:35:43.872Z,102928.59
2023-05-03T08:38:14.085Z,102926.41
2023-05-03T08:40:44.099Z,102934.98
2023-05-03T08:43:15.009Z,102930.38
2023-05-03T08:45:44.288Z,102929.50
2023-05-03T08:48:15.528Z,102922.13
2023-05-03T08:50:45.623Z,102928.30
2023-05-03T08:53:15.182Z,102923.42
2023-05-03T08:55:44.693Z,102916.03
2023-05-03T08:58:14.524Z,102912.70
2023-05-03T09:00:45.370Z,102912.81
2023-05-03T09:03:15.078Z,102908.63
2023-05-03T09:05:46.029Z,102913.40
2023-05-03T09:08:17.143Z,102911.49
2023-05-03T09:10:46.721Z,102916.38
2023-05-03T09:13:16.429Z,102915.59
2023-05-03T09:15:48.046Z,102915.09
2023-05-03T09:18:20.737Z,102912.55
2023-05-03T09:20:52.755Z,102900.02
2023-05-03T09:23:33.367Z,102910.20
2023-05-03T09:26:02.858Z,102911.28
2023-05-03T09:28:35.622Z,102914.33
2023-05-03T09:31:07.082Z,102922.86
2023-05-03T09:33:36.571Z,102926.08
2023-05-03T09:36:07.072Z,102930.22
2023-05-03T09:38:39.899Z,102924.84
2023-05-03T09:41:09.690Z,102925.49
2023-05-03T09:43:51.808Z,102921.74
2023-05-03T09:46:21.456Z,102924.94
2023-05-03T09:48:51.366Z,102930.36
2023-05-03T09:51:21.593Z,102924.31
2023-05-03T09:53:51.539Z,102922.91
2023-05-03T09:56:22.544Z,102929.21
2023-05-03T09:58:51.816Z,102925.72
2023-05-03T10:01:25.286Z,102924.72
2023-05-03T10:03:57.634Z,102921.41
2023-05-03T10:06:30.410Z,102909.73
2023-05-03T10:09:08.632Z,102909.73
2023-05-03T10:11:38.235Z,102922.15
2023-05-03T10:14:07.770Z,102913.42
2023-05-03T10:16:39.011Z,102920.63
2023-05-03T10:19:22.503Z,102923.77
2023-05-03T10:22:11.718Z,102925.25
2023-05-03T10:25:02.703Z,102920.14
2023-05-03T10:27:51.743Z,102919.60
2023-05-03T10:30:29.871Z,102905.20
2023-05-03T10:33:00.342Z,102912.94
2023-05-03T10:35:31.283Z,102917.48
2023-05-03T10:38:00.621Z,102905.97
2023-05-03T10:40:43.856Z,102910.66
2023-05-03T10:43:37.128Z,102901.72
2023-05-03T10:46:07.936Z,102904.48
2023-05-03T10:48:37.288Z,102893.83
2023-05-03T10:51:33.893Z,102893.31
2023-05-03T10:54:03.118Z,102891.58
2023-05-03T10:56:32.678Z,102889.95
2023-05-03T10:59:01.986Z,102903.23
2023-05-03T11:01:32.324Z,102899.92
2023-05-03T11:04:16.945Z,102892.78
2023-05-03T11:06:47.952Z,102882.25
2023-05-03T11:09:17.314Z,102887.06
2023-05-03T11:11:46.842Z,102880.73
2023-05-03T11:14:16.107Z,102877.50
2023-05-03T11:16:50.315Z,102871.23
2023-05-03T11:19:20.346Z,102863.81
2023-05-03T11:21:49.902Z,102862.75
2023-05-03T11:24:19.260Z,102860.93
2023-05-03T11:26:49.100Z,102861.66
2023-05-03T11:29:19.604Z,102848.70
2023-05-03T11:31:49.710Z,102858.14
2023-05-03T11:34:19.343Z,102858.77
2023-05-03T11:36:49.650Z,102862.08
2023-05-03T11:39:20.859Z,102853.94
2023-05-03T11:42:05.136Z,102844.42
2023-05-03T11:44:34.869Z,102845.06
2023-05-03T11:47:04.515Z,102849.39
2023-05-03T11:49:34.155Z,102832.78
2023-05-03T11:52:03.756Z,102833.02
2023-05-03T11:54:33.127Z,102822.79
2023-05-03T11:57:05.605Z,102828.45
2023-05-03T11:59:41.428Z,102815.36
2023-05-03T12:02:14.095Z,102811.20
2023-05-03T12:04:46.416Z,102809.58
2023-05-03T12:07:19.164Z,102812.97
2023-05-03T12:09:52.937Z,102810.63
2023-05-03T12:12:26.922Z,102807.77
2023-05-03T12:15:04.872Z,102805.87
2023-05-03T12:17:37.931Z,102808.70
2023-05-03T12:22:57.636Z,102792.31
2023-05-03T12:25:31.075Z,102788.09
2023-05-03T12:28:18.491Z,102790.97
2023-05-03T12:30:34.241Z,102786.16
2023-05-03T12:33:04.994Z,102776.88
2023-05-03T12:35:34.799Z,102781.48
2023-05-03T12:38:09.167Z,102770.86
2023-05-03T12:40:38.124Z,102770.07
2023-05-03T12:43:08.043Z,102760.98
2023-05-03T12:45:40.561Z,102759.78
2023-05-03T12:48:09.170Z,102760.81
2023-05-03T12:50:39.841Z,102761.79
2023-05-03T12:53:10.527Z,102758.14
2023-05-03T12:55:43.450Z,102750.53
2023-05-03T13:01:03.014Z,102752.84
2023-05-03T13:05:47.304Z,102740.67
2023-05-03T13:08:21.516Z,102742.61
2023-05-03T13:10:49.448Z,102732.27
2023-05-03T13:13:18.955Z,102736.94
2023-05-03T13:15:49.505Z,102728.00
2023-05-03T13:18:18.819Z,102726.43
2023-05-03T13:20:49.389Z,102725.13
2023-05-03T13:23:19.005Z,102723.94
2023-05-03T13:25:48.301Z,102713.49
2023-05-03T13:28:19.203Z,102717.93
2023-05-03T13:30:48.502Z,102707.28
2023-05-03T13:33:17.800Z,102705.57
2023-05-03T13:35:48.339Z,102704.75
2023-05-03T13:38:17.569Z,102690.45
2023-05-03T13:40:47.055Z,102691.17
2023-05-03T13:43:16.400Z,102692.78
2023-05-03T13:45:45.920Z,102689.72
2023-05-03T13:48:18.532Z,102680.97
2023-05-03T13:50:46.541Z,102682.19
2023-05-03T13:53:16.570Z,102672.95
2023-05-03T13:55:45.933Z,102674.66
2023-05-03T13:58:15.278Z,102662.50
2023-05-03T14:00:45.813Z,102670.22
2023-05-03T14:03:15.423Z,102667.15
2023-05-03T14:06:03.842Z,102667.18
2023-05-03T14:08:33.283Z,102656.92
2023-05-03T14:11:05.419Z,102650.83
2023-05-03T14:13:43.546Z,102652.86
2023-05-03T14:16:06.979Z,102649.17
2023-05-03T14:18:36.320Z,102644.28
2023-05-03T14:21:07.080Z,102641.26
2023-05-03T14:23:36.337Z,102635.55
2023-05-03T14:26:06.364Z,102629.28
2023-05-03T14:28:36.150Z,102628.37
2023-05-03T14:31:06.907Z,102628.59
2023-05-03T14:33:36.637Z,102623.63
2023-05-03T14:36:11.038Z,102622.38
2023-05-03T14:38:40.304Z,102622.77
2023-05-03T14:41:09.674Z,102615.19
2023-05-03T14:43:39.160Z,102614.88
2023-05-03T14:46:10.439Z,102611.19
2023-05-03T14:48:39.751Z,102613.42
2023-05-03T14:51:09.397Z,102604.36
2023-05-03T14:53:38.727Z,102597.50
2023-05-03T14:56:08.455Z,102596.37
2023-05-03T14:58:38.047Z,102595.13
2023-05-03T15:01:07.431Z,102601.31
2023-05-03T15:03:36.896Z,102602.02
2023-05-03T15:06:06.607Z,102599.97
2023-05-03T15:08:35.852Z,102597.93
2023-05-03T15:11:06.072Z,102593.28
2023-05-03T15:13:35.882Z,102587.45
2023-05-03T15:16:05.953Z,102587.27
2023-05-03T15:18:35.265Z,102587.48
2023-05-03T15:21:04.710Z,102583.17
2023-05-03T15:23:34.010Z,102576.03
2023-05-03T15:26:03.399Z,102575.30
2023-05-03T15:28:32.734Z,102574.41
2023-05-03T15:31:02.377Z,102564.25
2023-05-03T15:33:32.245Z,102567.56
2023-05-03T15:36:01.823Z,102563.70
2023-05-03T15:38:31.092Z,102560.55
2023-05-03T15:41:00.814Z,102558.66
2023-05-03T15:43:30.078Z,102563.95
2023-05-03T15:45:59.496Z,102562.72
2023-05-03T15:48:28.821Z,102560.69
2023-05-03T15:50:58.137Z,102559.98
2023-05-03T15:53:28.221Z,102555.02
2023-05-03T15:55:58.277Z,102558.65
2023-05-03T15:58:29.843Z,102549.50
2023-05-03T16:01:00.100Z,102546.94
2023-05-03T16:03:29.766Z,102546.20
2023-05-03T16:05:59.751Z,102537.00
2023-05-03T16:08:30.679Z,102546.00
2023-05-03T16:10:59.916Z,102529.92
2023-05-03T16:13:30.196Z,102539.93
2023-05-03T16:15:59.445Z,102528.52
2023-05-03T16:18:28.778Z,102529.17
2023-05-03T16:20:58.426Z,102525.02
2023-05-03T16:23:27.883Z,102525.31
2023-05-03T16:25:57.809Z,102515.70
2023-05-03T16:28:27.753Z,102525.36
2023-05-03T16:30:57.174Z,102527.69
2023-05-03T16:33:26.458Z,102522.19
2023-05-03T16:35:56.606Z,102521.62
2023-05-03T16:38:27.524Z,102524.86
2023-05-03T16:40:58.779Z,102521.26
2023-05-03T16:43:28.546Z,102520.04
2023-05-03T16:46:02.383Z,102527.61
2023-05-03T16:48:32.216Z,102519.12
2023-05-03T16:51:02.317Z,102518.98
2023-05-03T16:53:31.617Z,102516.58
2023-05-03T16:56:01.719Z,102510.02
2023-05-03T16:58:30.977Z,102512.69
2023-05-03T17:01:00.354Z,102515.91
2023-05-03T17:03:29.787Z,102516.47
2023-05-03T17:06:01.414Z,102511.05
2023-05-03T17:08:31.245Z,102503.09
2023-05-03T17:11:02.334Z,102498.13
2023-05-03T17:13:31.936Z,102496.48
2023-05-03T17:16:03.101Z,102492.91
2023-05-03T17:18:34.448Z,102490.39
2023-05-03T17:21:04.762Z,102489.50
2023-05-03T17:23:38.399Z,102487.95
2023-05-03T17:26:09.884Z,102490.64
2023-05-03T17:28:39.515Z,102482.58
2023-05-03T17:31:09.174Z,102487.33
2023-05-03T17:33:38.541Z,102480.22
2023-05-03T17:36:08.966Z,102480.34
2023-05-03T17:38:38.300Z,102478.77
2023-05-03T17:41:11.881Z,102483.59
2023-05-03T17:43:41.430Z,102480.69
2023-05-03T17:46:12.968Z,102489.77
2023-05-03T17:48:47.765Z,102495.42
2023-05-03T17:51:17.306Z,102494.94
2023-05-03T17:53:46.821Z,102490.12
2023-05-03T17:56:17.159Z,102490.49
2023-05-03T17:58:47.252Z,102486.97
2023-05-03T18:01:17.197Z,102483.61
2023-05-03T18:03:46.870Z,102476.36
2023-05-03T18:06:16.947Z,102479.00
2023-05-03T18:08:47.281Z,102478.88
2023-05-03T18:11:17.344Z,102482.84
2023-05-03T18:13:46.790Z,102479.95
2023-05-03T18:16:17.064Z,102474.30
2023-05-03T18:18:46.936Z,102473.91
2023-05-03T18:21:16.993Z,102474.97
2023-05-03T18:23:47.679Z,102476.30
2023-05-03T18:26:17.236Z,102479.89
2023-05-03T18:28:46.592Z,102481.80
2023-05-03T18:31:16.143Z,102485.50
2023-05-03T18:33:46.046Z,102488.77
2023-05-03T18:36:15.855Z,102494.05
2023-05-03T18:38:47.122Z,102486.80
2023-05-03T18:41:17.492Z,102495.47
2023-05-03T18:43:48.087Z,102495.24
2023-05-03T18:46:21.012Z,102488.44
2023-05-03T18:48:51.575Z,102495.38
2023-05-03T18:51:20.905Z,102489.33
2023-05-03T18:53:50.914Z,102482.69
2023-05-03T18:56:20.289Z,102486.23
2023-05-03T18:58:50.004Z,102494.83
2023-05-03T19:01:19.303Z,102488.47
2023-05-03T19:03:48.686Z,102485.22
2023-05-03T19:06:17.984Z,102484.11
2023-05-03T19:08:48.829Z,102483.57
2023-05-03T19:11:19.109Z,102472.81
2023-05-03T19:13:48.382Z,102478.95
2023-05-03T19:16:18.068Z,102476.55
2023-05-03T19:18:48.142Z,102474.05
2023-05-03T19:21:17.567Z,102476.90
2023-05-03T19:23:47.325Z,102478.89
2023-05-03T19:26:16.656Z,102474.33
2023-05-03T19:28:47.349Z,102472.45
2023-05-03T19:31:17.760Z,102472.00
2023-05-03T19:33:47.290Z,102478.66
2023-05-03T19:36:17.049Z,102471.20
2023-05-03T19:38:46.670Z,102469.72
2023-05-03T19:41:16.842Z,102463.94
2023-05-03T19:43:46.180Z,102475.38
2023-05-03T19:46:16.815Z,102477.86
2023-05-03T19:48:46.175Z,102480.55
2023-05-03T19:51:16.966Z,102475.47
2023-05-03T19:53:48.737Z,102480.86
2023-05-03T19:56:18.491Z,102478.88
2023-05-03T19:58:48.043Z,102479.27
2023-05-03T20:01:17.633Z,102478.05
2023-05-03T20:03:47.791Z,102484.81
2023-05-03T20:06:17.428Z,102483.14
2023-05-03T20:08:47.446Z,102481.41
2023-05-03T20:11:19.627Z,102478.62
2023-05-03T20:13:49.175Z,102476.34
2023-05-03T20:16:20.902Z,102472.68
2023-05-03T20:18:49.655Z,102479.58
2023-05-03T20:21:19.025Z,102472.68
2023-05-03T20:23:49.459Z,102473.17
2023-05-03T20:26:19.205Z,102465.06
2023-05-03T20:28:48.728Z,102461.77
2023-05-03T20:31:18.079Z,102464.04
2023-05-03T20:33:47.722Z,102459.12
2023-05-03T20:36:17.088Z,102453.71
2023-05-03T20:38:46.649Z,102455.59
2023-05-03T20:41:17.866Z,102461.19
2023-05-03T20:43:47.237Z,102452.81
2023-05-03T20:46:16.881Z,102454.52
2023-05-03T20:48:46.327Z,102453.77
2023-05-03T20:51:17.386Z,102451.89
2023-05-03T20:53:51.221Z,102455.47
2023-05-03T20:56:21.337Z,102452.44
2023-05-03T20:58:50.768Z,102453.97
2023-05-03T21:01:22.012Z,102450.27
2023-05-03T21:03:51.321Z,102451.11
2023-05-03T21:06:21.555Z,102451.30
2023-05-03T21:08:53.052Z,102444.89
2023-05-03T21:11:23.365Z,102444.52
2023-05-03T21:13:52.645Z,102441.20
2023-05-03T21:16:22.229Z,102447.25
2023-05-03T21:18:55.565Z,102446.55
2023-05-03T21:21:25.255Z,102441.29
2023-05-03T21:23:54.531Z,102442.52
2023-05-03T21:26:24.441Z,102438.84
2023-05-03T21:28:53.833Z,102442.79
2023-05-03T21:31:23.503Z,102442.98
2023-05-03T21:33:52.868Z,102437.25
2023-05-03T21:36:23.139Z,102443.16
2023-05-03T21:38:53.240Z,102438.08
2023-05-03T21:41:24.061Z,102441.08
2023-05-03T21:43:53.435Z,102435.81
2023-05-03T21:46:23.094Z,102429.22
2023-05-03T21:48:52.524Z,102428.45
2023-05-03T21:51:23.126Z,102427.32
2023-05-03T21:53:52.636Z,102422.42
2023-05-03T21:56:22.023Z,102421.88
2023-05-03T21:58:51.300Z,102420.73
2023-05-03T22:01:21.847Z,102420.70
2023-05-03T22:03:51.483Z,102420.11
2023-05-03T22:06:21.794Z,102419.42
2023-05-03T22:08:51.027Z,102414.98
2023-05-03T22:11:21.192Z,102415.29
2023-05-03T22:14:06.083Z,102414.23
2023-05-03T22:16:22.948Z,102412.44
2023-05-03T22:18:53.002Z,102417.88
2023-05-03T22:21:22.321Z,102419.69
2023-05-03T22:23:52.049Z,102418.58
2023-05-03T22:26:21.339Z,102417.98
2023-05-03T22:28:50.953Z,102416.37
2023-05-03T22:31:20.543Z,102418.77
2023-05-03T22:33:50.132Z,102418.05
2023-05-03T22:36:19.604Z,102410.70
2023-05-03T22:38:49.019Z,102409.20
2023-05-03T22:41:18.300Z,102406.16
2023-05-03T22:43:48.032Z,102400.90
2023-05-03T22:46:17.340Z,102403.76
2023-05-03T22:48:46.771Z,102395.41
2023-05-03T22:51:16.077Z,102397.39
2023-05-03T22:53:45.859Z,102391.30
2023-05-03T22:56:15.685Z,102390.47
2023-05-03T22:58:45.313Z,102393.16
2023-05-03T23:01:15.523Z,102391.82
2023-05-03T23:03:45.005Z,102384.21
2023-05-03T23:06:15.121Z,102383.53
2023-05-03T23:08:44.496Z,102374.81
2023-05-03T23:11:13.813Z,102376.95
2023-05-03T23:13:43.711Z,102366.00
2023-05-03T23:16:13.061Z,102368.44
2023-05-03T23:18:42.822Z,102365.03
2023-05-03T23:21:12.115Z,102363.52
2023-05-03T23:23:41.822Z,102359.89
2023-05-03T23:26:11.445Z,102360.05
2023-05-03T23:28:41.482Z,102362.94
2023-05-03T23:31:11.405Z,102359.00
2023-05-03T23:33:41.688Z,102358.84
2023-05-03T23:36:11.322Z,102355.14
2023-05-03T23:38:40.592Z,102353.42
2023-05-03T23:41:09.873Z,102351.20
2023-05-03T23:43:39.121Z,102344.96
2023-05-03T23:46:08.879Z,102338.70
2023-05-03T23:48:38.160Z,102333.52
2023-05-03T23:51:07.750Z,102335.78
2023-05-03T23:53:37.001Z,102326.58
2023-05-03T23:56:06.727Z,102321.21
2023-05-03T23:58:36.237Z,102318.66
